sensor_id;sensor_type;location;lat;lon;timestamp;P1;durP1;ratioP1;P2;durP2;ratioP2
43146;SDS011;28752;48.266;7.402;2022-07-06T00:01:21;1.35;;;0.77;;
43146;SDS011;28752;48.266;7.402;2022-07-06T00:03:46;1.90;;;0.75;;
43146;SDS011;28752;48.266;7.402;2022-07-06T00:06:12;2.42;;;0.98;;
43146;SDS011;28752;48.266;7.402;2022-07-06T00:08:38;1.15;;;0.70;;
43146;SDS011;28752;48.266;7.402;2022-07-06T00:11:04;2.28;;;0.82;;
43146;SDS011;28752;48.266;7.402;2022-07-06T00:13:29;2.13;;;0.95;;
43146;SDS011;28752;48.266;7.402;2022-07-06T00:15:55;1.58;;;0.80;;
43146;SDS011;28752;48.266;7.402;2022-07-06T00:18:20;1.23;;;0.70;;
43146;SDS011;28752;48.266;7.402;2022-07-06T00:20:46;1.37;;;0.60;;
43146;SDS011;28752;48.266;7.402;2022-07-06T00:23:11;1.87;;;0.80;;
43146;SDS011;28752;48.266;7.402;2022-07-06T00:25:37;1.27;;;0.70;;
43146;SDS011;28752;48.266;7.402;2022-07-06T00:28:02;1.85;;;1.05;;
43146;SDS011;28752;48.266;7.402;2022-07-06T00:30:28;2.60;;;0.63;;
43146;SDS011;28752;48.266;7.402;2022-07-06T00:32:54;1.52;;;0.68;;
43146;SDS011;28752;48.266;7.402;2022-07-06T00:35:19;2.77;;;1.43;;
43146;SDS011;28752;48.266;7.402;2022-07-06T00:37:45;3.17;;;0.88;;
43146;SDS011;28752;48.266;7.402;2022-07-06T00:40:10;2.17;;;1.07;;
43146;SDS011;28752;48.266;7.402;2022-07-06T00:45:09;1.45;;;0.80;;
43146;SDS011;28752;48.266;7.402;2022-07-06T00:47:36;1.90;;;0.80;;
43146;SDS011;28752;48.266;7.402;2022-07-06T00:50:02;1.48;;;0.73;;
43146;SDS011;28752;48.266;7.402;2022-07-06T00:52:53;1.83;;;0.75;;
43146;SDS011;28752;48.266;7.402;2022-07-06T00:55:29;2.28;;;0.80;;
43146;SDS011;28752;48.266;7.402;2022-07-06T00:58:04;1.58;;;0.57;;
43146;SDS011;28752;48.266;7.402;2022-07-06T01:00:30;1.77;;;0.98;;
43146;SDS011;28752;48.266;7.402;2022-07-06T01:02:57;1.52;;;0.85;;
43146;SDS011;28752;48.266;7.402;2022-07-06T01:05:22;2.70;;;0.95;;
43146;SDS011;28752;48.266;7.402;2022-07-06T01:07:49;2.30;;;1.13;;
43146;SDS011;28752;48.266;7.402;2022-07-06T01:10:16;2.15;;;0.85;;
43146;SDS011;28752;48.266;7.402;2022-07-06T01:12:43;2.03;;;0.70;;
43146;SDS011;28752;48.266;7.402;2022-07-06T01:15:11;1.75;;;1.02;;
43146;SDS011;28752;48.266;7.402;2022-07-06T01:17:39;1.60;;;0.80;;
43146;SDS011;28752;48.266;7.402;2022-07-06T01:20:27;2.53;;;1.30;;
43146;SDS011;28752;48.266;7.402;2022-07-06T01:25:18;1.95;;;1.10;;
43146;SDS011;28752;48.266;7.402;2022-07-06T01:27:45;3.53;;;0.95;;
43146;SDS011;28752;48.266;7.402;2022-07-06T01:30:12;1.23;;;0.70;;
43146;SDS011;28752;48.266;7.402;2022-07-06T01:32:39;1.27;;;0.85;;
43146;SDS011;28752;48.266;7.402;2022-07-06T01:35:05;1.67;;;0.82;;
43146;SDS011;28752;48.266;7.402;2022-07-06T01:37:32;1.23;;;0.82;;
43146;SDS011;28752;48.266;7.402;2022-07-06T01:39:58;3.53;;;0.85;;
43146;SDS011;28752;48.266;7.402;2022-07-06T01:42:25;2.00;;;0.90;;
43146;SDS011;28752;48.266;7.402;2022-07-06T01:44:50;2.05;;;0.85;;
43146;SDS011;28752;48.266;7.402;2022-07-06T01:47:16;1.27;;;0.70;;
43146;SDS011;28752;48.266;7.402;2022-07-06T01:49:41;1.23;;;0.60;;
43146;SDS011;28752;48.266;7.402;2022-07-06T01:52:07;3.13;;;0.90;;
43146;SDS011;28752;48.266;7.402;2022-07-06T01:54:32;1.77;;;0.87;;
43146;SDS011;28752;48.266;7.402;2022-07-06T01:56:58;1.15;;;0.70;;
43146;SDS011;28752;48.266;7.402;2022-07-06T01:59:23;2.07;;;0.90;;
43146;SDS011;28752;48.266;7.402;2022-07-06T02:01:50;2.22;;;0.80;;
43146;SDS011;28752;48.266;7.402;2022-07-06T02:04:15;2.20;;;0.70;;
43146;SDS011;28752;48.266;7.402;2022-07-06T02:06:41;1.05;;;0.70;;
43146;SDS011;28752;48.266;7.402;2022-07-06T02:09:06;1.33;;;0.73;;
43146;SDS011;28752;48.266;7.402;2022-07-06T02:11:32;1.92;;;1.02;;
43146;SDS011;28752;48.266;7.402;2022-07-06T02:13:57;2.17;;;1.10;;
43146;SDS011;28752;48.266;7.402;2022-07-06T02:16:23;2.07;;;0.80;;
43146;SDS011;28752;48.266;7.402;2022-07-06T02:18:48;2.13;;;0.90;;
43146;SDS011;28752;48.266;7.402;2022-07-06T02:21:13;1.53;;;0.73;;
43146;SDS011;28752;48.266;7.402;2022-07-06T02:23:39;1.20;;;0.63;;
43146;SDS011;28752;48.266;7.402;2022-07-06T02:26:04;2.27;;;1.00;;
43146;SDS011;28752;48.266;7.402;2022-07-06T02:28:30;2.97;;;0.80;;
43146;SDS011;28752;48.266;7.402;2022-07-06T02:30:55;2.03;;;0.98;;
43146;SDS011;28752;48.266;7.402;2022-07-06T02:33:21;2.13;;;0.80;;
43146;SDS011;28752;48.266;7.402;2022-07-06T02:35:46;2.87;;;1.13;;
43146;SDS011;28752;48.266;7.402;2022-07-06T02:38:12;2.23;;;0.90;;
43146;SDS011;28752;48.266;7.402;2022-07-06T02:40:37;2.25;;;0.90;;
43146;SDS011;28752;48.266;7.402;2022-07-06T02:43:03;3.60;;;0.98;;
43146;SDS011;28752;48.266;7.402;2022-07-06T02:45:30;1.57;;;0.80;;
43146;SDS011;28752;48.266;7.402;2022-07-06T02:47:56;2.55;;;0.85;;
43146;SDS011;28752;48.266;7.402;2022-07-06T02:52:47;3.40;;;1.30;;
43146;SDS011;28752;48.266;7.402;2022-07-06T02:55:13;2.70;;;1.00;;
43146;SDS011;28752;48.266;7.402;2022-07-06T02:57:38;0.93;;;0.73;;
43146;SDS011;28752;48.266;7.402;2022-07-06T03:00:04;2.35;;;1.17;;
43146;SDS011;28752;48.266;7.402;2022-07-06T03:04:56;1.80;;;0.80;;
43146;SDS011;28752;48.266;7.402;2022-07-06T03:07:21;1.70;;;0.87;;
43146;SDS011;28752;48.266;7.402;2022-07-06T03:09:47;2.13;;;0.80;;
43146;SDS011;28752;48.266;7.402;2022-07-06T03:12:12;2.30;;;1.00;;
43146;SDS011;28752;48.266;7.402;2022-07-06T03:14:38;1.48;;;0.88;;
43146;SDS011;28752;48.266;7.402;2022-07-06T03:17:03;2.13;;;1.20;;
43146;SDS011;28752;48.266;7.402;2022-07-06T03:19:28;1.97;;;1.20;;
43146;SDS011;28752;48.266;7.402;2022-07-06T03:21:54;2.10;;;0.90;;
43146;SDS011;28752;48.266;7.402;2022-07-06T03:24:19;1.83;;;1.00;;
43146;SDS011;28752;48.266;7.402;2022-07-06T03:26:45;5.47;;;1.83;;
43146;SDS011;28752;48.266;7.402;2022-07-06T03:29:10;1.73;;;0.83;;
43146;SDS011;28752;48.266;7.402;2022-07-06T03:31:35;1.60;;;0.80;;
43146;SDS011;28752;48.266;7.402;2022-07-06T03:34:01;2.00;;;0.90;;
43146;SDS011;28752;48.266;7.402;2022-07-06T03:36:26;2.10;;;1.10;;
43146;SDS011;28752;48.266;7.402;2022-07-06T03:38:51;1.93;;;0.90;;
43146;SDS011;28752;48.266;7.402;2022-07-06T03:41:17;1.50;;;1.10;;
43146;SDS011;28752;48.266;7.402;2022-07-06T03:43:42;3.03;;;1.17;;
43146;SDS011;28752;48.266;7.402;2022-07-06T03:46:08;1.67;;;1.10;;
43146;SDS011;28752;48.266;7.402;2022-07-06T03:48:33;1.50;;;0.90;;
43146;SDS011;28752;48.266;7.402;2022-07-06T03:50:59;1.93;;;1.00;;
43146;SDS011;28752;48.266;7.402;2022-07-06T03:53:24;2.43;;;1.23;;
43146;SDS011;28752;48.266;7.402;2022-07-06T03:55:50;1.50;;;0.97;;
43146;SDS011;28752;48.266;7.402;2022-07-06T03:58:34;2.40;;;1.10;;
43146;SDS011;28752;48.266;7.402;2022-07-06T04:00:59;2.07;;;1.10;;
43146;SDS011;28752;48.266;7.402;2022-07-06T04:03:25;2.60;;;1.23;;
43146;SDS011;28752;48.266;7.402;2022-07-06T04:05:50;1.60;;;1.00;;
43146;SDS011;28752;48.266;7.402;2022-07-06T04:08:15;1.17;;;0.70;;
43146;SDS011;28752;48.266;7.402;2022-07-06T04:10:41;1.40;;;0.80;;
43146;SDS011;28752;48.266;7.402;2022-07-06T04:13:06;1.93;;;0.93;;
43146;SDS011;28752;48.266;7.402;2022-07-06T04:15:32;9.40;;;1.10;;
43146;SDS011;28752;48.266;7.402;2022-07-06T04:17:57;3.83;;;1.17;;
43146;SDS011;28752;48.266;7.402;2022-07-06T04:20:23;2.60;;;1.15;;
43146;SDS011;28752;48.266;7.402;2022-07-06T04:22:50;1.60;;;0.90;;
43146;SDS011;28752;48.266;7.402;2022-07-06T04:25:17;2.38;;;1.02;;
43146;SDS011;28752;48.266;7.402;2022-07-06T04:27:42;2.22;;;1.40;;
43146;SDS011;28752;48.266;7.402;2022-07-06T04:30:08;3.05;;;1.05;;
43146;SDS011;28752;48.266;7.402;2022-07-06T04:35:00;1.83;;;1.10;;
43146;SDS011;28752;48.266;7.402;2022-07-06T04:37:26;1.77;;;0.90;;
43146;SDS011;28752;48.266;7.402;2022-07-06T04:39:51;2.10;;;1.10;;
43146;SDS011;28752;48.266;7.402;2022-07-06T04:42:17;1.80;;;0.90;;
43146;SDS011;28752;48.266;7.402;2022-07-06T04:44:42;2.55;;;1.13;;
43146;SDS011;28752;48.266;7.402;2022-07-06T04:47:08;1.95;;;0.90;;
43146;SDS011;28752;48.266;7.402;2022-07-06T04:49:33;1.63;;;0.68;;
43146;SDS011;28752;48.266;7.402;2022-07-06T04:51:59;2.33;;;0.97;;
43146;SDS011;28752;48.266;7.402;2022-07-06T04:54:24;4.30;;;1.38;;
43146;SDS011;28752;48.266;7.402;2022-07-06T04:56:50;2.30;;;1.10;;
43146;SDS011;28752;48.266;7.402;2022-07-06T04:59:15;1.77;;;1.00;;
43146;SDS011;28752;48.266;7.402;2022-07-06T05:01:41;2.05;;;0.90;;
43146;SDS011;28752;48.266;7.402;2022-07-06T05:04:07;1.77;;;1.00;;
43146;SDS011;28752;48.266;7.402;2022-07-06T05:06:33;2.35;;;1.02;;
43146;SDS011;28752;48.266;7.402;2022-07-06T05:08:59;1.88;;;0.90;;
43146;SDS011;28752;48.266;7.402;2022-07-06T05:11:25;1.42;;;1.00;;
43146;SDS011;28752;48.266;7.402;2022-07-06T05:13:51;2.60;;;1.10;;
43146;SDS011;28752;48.266;7.402;2022-07-06T05:16:17;1.80;;;1.05;;
43146;SDS011;28752;48.266;7.402;2022-07-06T05:18:42;1.20;;;0.70;;
43146;SDS011;28752;48.266;7.402;2022-07-06T05:21:08;1.98;;;1.13;;
43146;SDS011;28752;48.266;7.402;2022-07-06T05:23:33;1.77;;;0.82;;
43146;SDS011;28752;48.266;7.402;2022-07-06T05:25:59;2.13;;;1.10;;
43146;SDS011;28752;48.266;7.402;2022-07-06T05:28:24;4.80;;;1.30;;
43146;SDS011;28752;48.266;7.402;2022-07-06T05:30:49;1.43;;;1.00;;
43146;SDS011;28752;48.266;7.402;2022-07-06T05:33:15;3.87;;;1.00;;
43146;SDS011;28752;48.266;7.402;2022-07-06T05:35:40;2.67;;;1.10;;
43146;SDS011;28752;48.266;7.402;2022-07-06T05:38:06;2.55;;;0.95;;
43146;SDS011;28752;48.266;7.402;2022-07-06T05:40:31;1.25;;;1.00;;
43146;SDS011;28752;48.266;7.402;2022-07-06T05:42:57;2.47;;;0.98;;
43146;SDS011;28752;48.266;7.402;2022-07-06T05:45:22;1.93;;;0.80;;
43146;SDS011;28752;48.266;7.402;2022-07-06T05:47:48;2.28;;;1.02;;
43146;SDS011;28752;48.266;7.402;2022-07-06T05:50:32;2.83;;;1.00;;
43146;SDS011;28752;48.266;7.402;2022-07-06T05:52:58;1.30;;;0.93;;
43146;SDS011;28752;48.266;7.402;2022-07-06T05:55:25;1.13;;;0.80;;
43146;SDS011;28752;48.266;7.402;2022-07-06T05:57:52;2.35;;;1.30;;
43146;SDS011;28752;48.266;7.402;2022-07-06T06:00:21;2.95;;;1.00;;
43146;SDS011;28752;48.266;7.402;2022-07-06T06:02:47;3.65;;;1.00;;
43146;SDS011;28752;48.266;7.402;2022-07-06T06:05:13;2.10;;;1.30;;
43146;SDS011;28752;48.266;7.402;2022-07-06T06:07:39;2.17;;;1.20;;
43146;SDS011;28752;48.266;7.402;2022-07-06T06:12:32;1.48;;;0.85;;
43146;SDS011;28752;48.266;7.402;2022-07-06T06:17:22;1.92;;;1.00;;
43146;SDS011;28752;48.266;7.402;2022-07-06T06:19:48;1.58;;;1.02;;
43146;SDS011;28752;48.266;7.402;2022-07-06T06:22:13;2.92;;;1.35;;
43146;SDS011;28752;48.266;7.402;2022-07-06T06:24:39;2.05;;;1.13;;
43146;SDS011;28752;48.266;7.402;2022-07-06T06:27:04;3.20;;;1.10;;
43146;SDS011;28752;48.266;7.402;2022-07-06T06:29:30;2.55;;;1.20;;
43146;SDS011;28752;48.266;7.402;2022-07-06T06:31:55;2.58;;;1.20;;
43146;SDS011;28752;48.266;7.402;2022-07-06T06:34:21;2.20;;;1.27;;
43146;SDS011;28752;48.266;7.402;2022-07-06T06:36:46;3.80;;;1.88;;
43146;SDS011;28752;48.266;7.402;2022-07-06T06:39:11;1.67;;;0.93;;
43146;SDS011;28752;48.266;7.402;2022-07-06T06:41:37;4.00;;;1.30;;
43146;SDS011;28752;48.266;7.402;2022-07-06T06:44:02;2.53;;;1.27;;
43146;SDS011;28752;48.266;7.402;2022-07-06T06:46:28;3.17;;;1.83;;
43146;SDS011;28752;48.266;7.402;2022-07-06T06:48:53;3.45;;;1.50;;
43146;SDS011;28752;48.266;7.402;2022-07-06T06:51:19;2.28;;;1.42;;
43146;SDS011;28752;48.266;7.402;2022-07-06T06:53:45;4.88;;;1.60;;
43146;SDS011;28752;48.266;7.402;2022-07-06T06:56:11;2.25;;;1.25;;
43146;SDS011;28752;48.266;7.402;2022-07-06T06:58:37;2.45;;;1.27;;
43146;SDS011;28752;48.266;7.402;2022-07-06T07:01:02;2.38;;;1.50;;
43146;SDS011;28752;48.266;7.402;2022-07-06T07:03:28;2.75;;;1.50;;
43146;SDS011;28752;48.266;7.402;2022-07-06T07:05:53;5.70;;;1.95;;
43146;SDS011;28752;48.266;7.402;2022-07-06T07:08:18;2.63;;;1.30;;
43146;SDS011;28752;48.266;7.402;2022-07-06T07:10:44;3.78;;;1.63;;
43146;SDS011;28752;48.266;7.402;2022-07-06T07:13:09;2.53;;;1.50;;
43146;SDS011;28752;48.266;7.402;2022-07-06T07:15:34;2.25;;;1.20;;
43146;SDS011;28752;48.266;7.402;2022-07-06T07:18:00;2.75;;;1.40;;
43146;SDS011;28752;48.266;7.402;2022-07-06T07:20:25;3.22;;;1.35;;
43146;SDS011;28752;48.266;7.402;2022-07-06T07:22:51;3.28;;;1.42;;
43146;SDS011;28752;48.266;7.402;2022-07-06T07:25:17;2.45;;;1.30;;
43146;SDS011;28752;48.266;7.402;2022-07-06T07:27:42;2.88;;;1.70;;
43146;SDS011;28752;48.266;7.402;2022-07-06T07:30:08;2.40;;;1.33;;
43146;SDS011;28752;48.266;7.402;2022-07-06T07:32:34;4.47;;;1.48;;
43146;SDS011;28752;48.266;7.402;2022-07-06T07:34:59;3.40;;;1.45;;
43146;SDS011;28752;48.266;7.402;2022-07-06T07:37:24;3.28;;;1.50;;
43146;SDS011;28752;48.266;7.402;2022-07-06T07:39:50;2.65;;;1.30;;
43146;SDS011;28752;48.266;7.402;2022-07-06T07:42:15;3.10;;;1.42;;
43146;SDS011;28752;48.266;7.402;2022-07-06T07:44:40;2.60;;;1.50;;
43146;SDS011;28752;48.266;7.402;2022-07-06T07:47:06;3.50;;;1.70;;
43146;SDS011;28752;48.266;7.402;2022-07-06T07:49:31;2.67;;;1.48;;
43146;SDS011;28752;48.266;7.402;2022-07-06T07:51:57;2.83;;;1.40;;
43146;SDS011;28752;48.266;7.402;2022-07-06T07:54:23;2.22;;;1.10;;
43146;SDS011;28752;48.266;7.402;2022-07-06T07:56:48;2.95;;;1.58;;
43146;SDS011;28752;48.266;7.402;2022-07-06T07:59:14;2.47;;;1.30;;
43146;SDS011;28752;48.266;7.402;2022-07-06T08:01:39;4.70;;;1.70;;
43146;SDS011;28752;48.266;7.402;2022-07-06T08:04:04;2.88;;;1.48;;
43146;SDS011;28752;48.266;7.402;2022-07-06T08:06:30;3.70;;;1.90;;
43146;SDS011;28752;48.266;7.402;2022-07-06T08:08:55;2.63;;;1.40;;
43146;SDS011;28752;48.266;7.402;2022-07-06T08:11:21;3.58;;;1.70;;
43146;SDS011;28752;48.266;7.402;2022-07-06T08:16:12;8.45;;;2.53;;
43146;SDS011;28752;48.266;7.402;2022-07-06T08:21:03;3.28;;;1.50;;
43146;SDS011;28752;48.266;7.402;2022-07-06T08:25:54;2.80;;;1.60;;
43146;SDS011;28752;48.266;7.402;2022-07-06T08:28:19;2.67;;;1.65;;
43146;SDS011;28752;48.266;7.402;2022-07-06T08:33:10;3.33;;;1.60;;
43146;SDS011;28752;48.266;7.402;2022-07-06T08:35:35;4.88;;;1.55;;
43146;SDS011;28752;48.266;7.402;2022-07-06T08:38:01;2.75;;;1.58;;
43146;SDS011;28752;48.266;7.402;2022-07-06T08:42:56;3.22;;;1.70;;
43146;SDS011;28752;48.266;7.402;2022-07-06T08:45:24;3.22;;;1.80;;
43146;SDS011;28752;48.266;7.402;2022-07-06T08:47:50;4.32;;;2.13;;
43146;SDS011;28752;48.266;7.402;2022-07-06T08:50:18;3.10;;;1.60;;
43146;SDS011;28752;48.266;7.402;2022-07-06T08:52:45;3.40;;;1.85;;
43146;SDS011;28752;48.266;7.402;2022-07-06T08:55:12;3.42;;;1.85;;
43146;SDS011;28752;48.266;7.402;2022-07-06T08:57:38;3.30;;;1.73;;
43146;SDS011;28752;48.266;7.402;2022-07-06T09:00:08;11.10;;;1.92;;
43146;SDS011;28752;48.266;7.402;2022-07-06T09:02:34;3.85;;;1.98;;
43146;SDS011;28752;48.266;7.402;2022-07-06T09:05:02;4.20;;;1.80;;
43146;SDS011;28752;48.266;7.402;2022-07-06T09:07:28;3.42;;;1.90;;
43146;SDS011;28752;48.266;7.402;2022-07-06T09:09:55;2.97;;;1.90;;
43146;SDS011;28752;48.266;7.402;2022-07-06T09:12:26;2.85;;;1.50;;
43146;SDS011;28752;48.266;7.402;2022-07-06T09:14:56;4.05;;;1.90;;
43146;SDS011;28752;48.266;7.402;2022-07-06T09:17:27;4.35;;;1.88;;
43146;SDS011;28752;48.266;7.402;2022-07-06T09:19:57;4.03;;;1.67;;
43146;SDS011;28752;48.266;7.402;2022-07-06T09:22:26;3.67;;;1.95;;
43146;SDS011;28752;48.266;7.402;2022-07-06T09:24:53;5.78;;;1.75;;
43146;SDS011;28752;48.266;7.402;2022-07-06T09:27:25;4.55;;;1.98;;
43146;SDS011;28752;48.266;7.402;2022-07-06T09:29:51;3.22;;;1.70;;
43146;SDS011;28752;48.266;7.402;2022-07-06T09:32:19;3.13;;;1.67;;
43146;SDS011;28752;48.266;7.402;2022-07-06T09:34:46;3.75;;;2.03;;
43146;SDS011;28752;48.266;7.402;2022-07-06T09:37:12;5.95;;;1.98;;
43146;SDS011;28752;48.266;7.402;2022-07-06T09:39:38;3.70;;;1.80;;
43146;SDS011;28752;48.266;7.402;2022-07-06T09:42:04;2.30;;;1.40;;
43146;SDS011;28752;48.266;7.402;2022-07-06T09:44:35;3.33;;;1.70;;
43146;SDS011;28752;48.266;7.402;2022-07-06T09:47:03;2.95;;;1.65;;
43146;SDS011;28752;48.266;7.402;2022-07-06T09:49:37;3.00;;;1.42;;
43146;SDS011;28752;48.266;7.402;2022-07-06T09:52:08;5.88;;;1.48;;
43146;SDS011;28752;48.266;7.402;2022-07-06T09:54:35;4.10;;;1.60;;
43146;SDS011;28752;48.266;7.402;2022-07-06T09:57:03;3.50;;;1.58;;
43146;SDS011;28752;48.266;7.402;2022-07-06T09:59:30;2.42;;;1.35;;
43146;SDS011;28752;48.266;7.402;2022-07-06T10:01:58;3.85;;;1.80;;
43146;SDS011;28752;48.266;7.402;2022-07-06T10:04:26;5.95;;;2.50;;
43146;SDS011;28752;48.266;7.402;2022-07-06T10:06:54;4.35;;;1.92;;
43146;SDS011;28752;48.266;7.402;2022-07-06T10:09:22;2.80;;;1.35;;
43146;SDS011;28752;48.266;7.402;2022-07-06T10:11:50;4.22;;;2.40;;
43146;SDS011;28752;48.266;7.402;2022-07-06T10:14:17;4.35;;;2.03;;
43146;SDS011;28752;48.266;7.402;2022-07-06T10:16:47;4.30;;;1.88;;
43146;SDS011;28752;48.266;7.402;2022-07-06T10:19:14;3.95;;;1.73;;
43146;SDS011;28752;48.266;7.402;2022-07-06T10:21:40;3.58;;;1.75;;
43146;SDS011;28752;48.266;7.402;2022-07-06T10:26:33;3.65;;;1.50;;
43146;SDS011;28752;48.266;7.402;2022-07-06T10:29:00;2.92;;;1.60;;
43146;SDS011;28752;48.266;7.402;2022-07-06T10:31:27;4.85;;;1.85;;
43146;SDS011;28752;48.266;7.402;2022-07-06T10:33:54;3.47;;;1.80;;
43146;SDS011;28752;48.266;7.402;2022-07-06T10:36:21;4.63;;;1.73;;
43146;SDS011;28752;48.266;7.402;2022-07-06T10:38:49;3.13;;;1.60;;
43146;SDS011;28752;48.266;7.402;2022-07-06T10:41:15;4.03;;;1.70;;
43146;SDS011;28752;48.266;7.402;2022-07-06T10:43:42;5.40;;;2.28;;
43146;SDS011;28752;48.266;7.402;2022-07-06T10:46:10;3.83;;;1.98;;
43146;SDS011;28752;48.266;7.402;2022-07-06T10:48:37;2.95;;;1.60;;
43146;SDS011;28752;48.266;7.402;2022-07-06T10:51:04;2.88;;;1.67;;
43146;SDS011;28752;48.266;7.402;2022-07-06T10:53:31;5.25;;;1.85;;
43146;SDS011;28752;48.266;7.402;2022-07-06T10:56:04;3.95;;;1.60;;
43146;SDS011;28752;48.266;7.402;2022-07-06T11:01:11;2.38;;;1.40;;
43146;SDS011;28752;48.266;7.402;2022-07-06T11:03:47;3.95;;;1.70;;
43146;SDS011;28752;48.266;7.402;2022-07-06T11:06:20;1.98;;;1.25;;
43146;SDS011;28752;48.266;7.402;2022-07-06T11:14:00;3.08;;;1.80;;
43146;SDS011;28752;48.266;7.402;2022-07-06T11:19:12;2.85;;;1.63;;
43146;SDS011;28752;48.266;7.402;2022-07-06T11:24:28;2.92;;;1.60;;
43146;SDS011;28752;48.266;7.402;2022-07-06T11:26:56;3.38;;;1.80;;
43146;SDS011;28752;48.266;7.402;2022-07-06T11:29:23;2.78;;;1.50;;
43146;SDS011;28752;48.266;7.402;2022-07-06T11:31:53;3.90;;;2.05;;
43146;SDS011;28752;48.266;7.402;2022-07-06T11:34:24;2.92;;;1.60;;
43146;SDS011;28752;48.266;7.402;2022-07-06T11:37:02;2.33;;;1.50;;
43146;SDS011;28752;48.266;7.402;2022-07-06T11:39:33;3.08;;;1.58;;
43146;SDS011;28752;48.266;7.402;2022-07-06T11:42:00;2.35;;;1.38;;
43146;SDS011;28752;48.266;7.402;2022-07-06T11:44:26;3.17;;;1.60;;
43146;SDS011;28752;48.266;7.402;2022-07-06T11:46:52;2.58;;;1.52;;
43146;SDS011;28752;48.266;7.402;2022-07-06T11:49:19;2.28;;;1.48;;
43146;SDS011;28752;48.266;7.402;2022-07-06T11:51:45;3.53;;;1.42;;
43146;SDS011;28752;48.266;7.402;2022-07-06T11:54:13;3.03;;;1.80;;
43146;SDS011;28752;48.266;7.402;2022-07-06T11:56:56;4.18;;;1.83;;
43146;SDS011;28752;48.266;7.402;2022-07-06T11:59:27;2.42;;;1.40;;
43146;SDS011;28752;48.266;7.402;2022-07-06T12:02:13;2.58;;;1.48;;
43146;SDS011;28752;48.266;7.402;2022-07-06T12:04:41;2.25;;;1.42;;
43146;SDS011;28752;48.266;7.402;2022-07-06T12:07:09;3.20;;;1.30;;
43146;SDS011;28752;48.266;7.402;2022-07-06T12:09:39;1.85;;;1.10;;
43146;SDS011;28752;48.266;7.402;2022-07-06T12:12:07;2.35;;;1.33;;
43146;SDS011;28752;48.266;7.402;2022-07-06T12:14:35;2.75;;;1.80;;
43146;SDS011;28752;48.266;7.402;2022-07-06T12:17:02;2.90;;;1.42;;
43146;SDS011;28752;48.266;7.402;2022-07-06T12:19:33;3.45;;;1.58;;
43146;SDS011;28752;48.266;7.402;2022-07-06T12:21:59;2.17;;;1.45;;
43146;SDS011;28752;48.266;7.402;2022-07-06T12:24:27;5.88;;;1.33;;
43146;SDS011;28752;48.266;7.402;2022-07-06T12:26:56;4.03;;;1.50;;
43146;SDS011;28752;48.266;7.402;2022-07-06T12:29:21;2.20;;;1.30;;
43146;SDS011;28752;48.266;7.402;2022-07-06T12:34:13;4.43;;;1.35;;
43146;SDS011;28752;48.266;7.402;2022-07-06T12:36:46;3.30;;;1.40;;
43146;SDS011;28752;48.266;7.402;2022-07-06T12:39:16;3.17;;;1.30;;
43146;SDS011;28752;48.266;7.402;2022-07-06T12:41:44;2.22;;;1.27;;
43146;SDS011;28752;48.266;7.402;2022-07-06T12:44:11;2.45;;;1.17;;
43146;SDS011;28752;48.266;7.402;2022-07-06T12:46:38;2.05;;;1.20;;
43146;SDS011;28752;48.266;7.402;2022-07-06T12:49:20;2.15;;;1.25;;
43146;SDS011;28752;48.266;7.402;2022-07-06T12:51:57;3.10;;;1.35;;
43146;SDS011;28752;48.266;7.402;2022-07-06T12:54:26;2.15;;;1.20;;
43146;SDS011;28752;48.266;7.402;2022-07-06T12:57:13;2.53;;;1.15;;
43146;SDS011;28752;48.266;7.402;2022-07-06T13:02:25;3.20;;;1.67;;
43146;SDS011;28752;48.266;7.402;2022-07-06T13:07:25;3.10;;;1.40;;
43146;SDS011;28752;48.266;7.402;2022-07-06T13:09:52;3.25;;;1.30;;
43146;SDS011;28752;48.266;7.402;2022-07-06T13:12:18;2.33;;;1.05;;
43146;SDS011;28752;48.266;7.402;2022-07-06T13:14:44;2.80;;;1.45;;
43146;SDS011;28752;48.266;7.402;2022-07-06T13:17:10;5.30;;;1.55;;
43146;SDS011;28752;48.266;7.402;2022-07-06T13:19:35;2.63;;;1.35;;
43146;SDS011;28752;48.266;7.402;2022-07-06T13:22:01;1.65;;;1.10;;
43146;SDS011;28752;48.266;7.402;2022-07-06T13:24:26;2.47;;;1.50;;
43146;SDS011;28752;48.266;7.402;2022-07-06T13:26:53;1.85;;;1.17;;
43146;SDS011;28752;48.266;7.402;2022-07-06T13:29:19;2.25;;;1.40;;
43146;SDS011;28752;48.266;7.402;2022-07-06T13:34:09;3.33;;;1.33;;
43146;SDS011;28752;48.266;7.402;2022-07-06T13:39:00;1.97;;;1.30;;
43146;SDS011;28752;48.266;7.402;2022-07-06T13:43:51;1.58;;;1.10;;
43146;SDS011;28752;48.266;7.402;2022-07-06T13:48:43;3.35;;;1.73;;
43146;SDS011;28752;48.266;7.402;2022-07-06T13:55:59;3.57;;;1.50;;
43146;SDS011;28752;48.266;7.402;2022-07-06T13:58:24;2.25;;;1.20;;
43146;SDS011;28752;48.266;7.402;2022-07-06T14:00:50;2.83;;;1.27;;
43146;SDS011;28752;48.266;7.402;2022-07-06T14:05:40;2.45;;;1.30;;
43146;SDS011;28752;48.266;7.402;2022-07-06T14:10:32;1.52;;;1.00;;
43146;SDS011;28752;48.266;7.402;2022-07-06T14:12:57;2.45;;;1.15;;
43146;SDS011;28752;48.266;7.402;2022-07-06T14:15:23;1.75;;;0.70;;
43146;SDS011;28752;48.266;7.402;2022-07-06T14:20:14;2.63;;;1.10;;
43146;SDS011;28752;48.266;7.402;2022-07-06T14:22:40;1.48;;;1.08;;
43146;SDS011;28752;48.266;7.402;2022-07-06T14:27:32;2.35;;;1.17;;
43146;SDS011;28752;48.266;7.402;2022-07-06T14:29:58;2.50;;;1.10;;
43146;SDS011;28752;48.266;7.402;2022-07-06T14:34:49;2.07;;;0.90;;
43146;SDS011;28752;48.266;7.402;2022-07-06T14:39:39;1.50;;;0.80;;
43146;SDS011;28752;48.266;7.402;2022-07-06T14:44:30;1.17;;;0.52;;
43146;SDS011;28752;48.266;7.402;2022-07-06T14:49:21;0.73;;;0.30;;
43146;SDS011;28752;48.266;7.402;2022-07-06T14:54:13;1.40;;;0.32;;
43146;SDS011;28752;48.266;7.402;2022-07-06T14:59:04;1.03;;;0.50;;
43146;SDS011;28752;48.266;7.402;2022-07-06T15:03:54;2.27;;;0.77;;
43146;SDS011;28752;48.266;7.402;2022-07-06T15:06:20;1.60;;;0.40;;
43146;SDS011;28752;48.266;7.402;2022-07-06T15:11:12;0.85;;;0.40;;
43146;SDS011;28752;48.266;7.402;2022-07-06T15:16:03;1.58;;;0.40;;
43146;SDS011;28752;48.266;7.402;2022-07-06T15:20:54;1.83;;;0.50;;
43146;SDS011;28752;48.266;7.402;2022-07-06T15:28:10;0.90;;;0.40;;
43146;SDS011;28752;48.266;7.402;2022-07-06T15:30:37;1.05;;;0.45;;
43146;SDS011;28752;48.266;7.402;2022-07-06T15:37:54;3.47;;;0.53;;
43146;SDS011;28752;48.266;7.402;2022-07-06T15:43:05;0.90;;;0.50;;
43146;SDS011;28752;48.266;7.402;2022-07-06T15:45:31;1.55;;;0.47;;
43146;SDS011;28752;48.266;7.402;2022-07-06T15:50:21;0.57;;;0.30;;
43146;SDS011;28752;48.266;7.402;2022-07-06T15:55:13;0.70;;;0.40;;
43146;SDS011;28752;48.266;7.402;2022-07-06T15:57:38;0.88;;;0.55;;
43146;SDS011;28752;48.266;7.402;2022-07-06T16:00:04;0.82;;;0.52;;
43146;SDS011;28752;48.266;7.402;2022-07-06T16:02:30;0.73;;;0.35;;
43146;SDS011;28752;48.266;7.402;2022-07-06T16:04:55;0.80;;;0.28;;
43146;SDS011;28752;48.266;7.402;2022-07-06T16:07:21;0.82;;;0.40;;
43146;SDS011;28752;48.266;7.402;2022-07-06T16:12:12;1.15;;;0.45;;
43146;SDS011;28752;48.266;7.402;2022-07-06T16:14:37;0.85;;;0.43;;
43146;SDS011;28752;48.266;7.402;2022-07-06T16:17:02;0.50;;;0.30;;
43146;SDS011;28752;48.266;7.402;2022-07-06T16:19:28;0.50;;;0.35;;
43146;SDS011;28752;48.266;7.402;2022-07-06T16:21:54;0.40;;;0.30;;
43146;SDS011;28752;48.266;7.402;2022-07-06T16:26:44;0.47;;;0.33;;
43146;SDS011;28752;48.266;7.402;2022-07-06T16:29:10;0.50;;;0.30;;
43146;SDS011;28752;48.266;7.402;2022-07-06T16:31:35;0.88;;;0.55;;
43146;SDS011;28752;48.266;7.402;2022-07-06T16:34:01;1.15;;;0.65;;
43146;SDS011;28752;48.266;7.402;2022-07-06T16:36:26;0.93;;;0.57;;
43146;SDS011;28752;48.266;7.402;2022-07-06T16:38:51;1.20;;;0.63;;
43146;SDS011;28752;48.266;7.402;2022-07-06T16:41:17;0.98;;;0.40;;
43146;SDS011;28752;48.266;7.402;2022-07-06T16:43:42;0.73;;;0.50;;
43146;SDS011;28752;48.266;7.402;2022-07-06T16:46:08;1.05;;;0.90;;
43146;SDS011;28752;48.266;7.402;2022-07-06T16:48:34;0.52;;;0.30;;